createdAt,value
2022-11-04T00:01:35.737Z,100.00
2022-11-04T00:04:47.812Z,100.00
2022-11-04T00:08:14.363Z,100.00
2022-11-04T00:11:53.218Z,100.00
2022-11-04T00:15:07.531Z,100.00
2022-11-04T00:18:19.763Z,100.00
2022-11-04T00:21:46.286Z,100.00
2022-11-04T00:25:12.932Z,100.00
2022-11-04T00:28:40.556Z,100.00
2022-11-04T00:32:04.435Z,100.00
2022-11-04T00:35:18.649Z,100.00
2022-11-04T00:38:31.937Z,100.00
2022-11-04T00:41:44.182Z,100.00
2022-11-04T00:44:56.516Z,100.00
2022-11-04T00:48:09.267Z,100.00
2022-11-04T00:51:22.405Z,100.00
2022-11-04T00:54:34.626Z,100.00
2022-11-04T00:57:46.732Z,100.00
2022-11-04T01:00:59.226Z,100.00
2022-11-04T01:04:11.889Z,100.00
2022-11-04T01:07:24.154Z,100.00
2022-11-04T01:10:36.358Z,100.00
2022-11-04T01:13:48.867Z,100.00
2022-11-04T01:17:01.100Z,100.00
2022-11-04T01:20:15.441Z,100.00
2022-11-04T01:23:27.801Z,100.00
2022-11-04T01:26:40.054Z,100.00
2022-11-04T01:29:52.256Z,100.00
2022-11-04T01:33:04.672Z,100.00
2022-11-04T01:36:18.308Z,100.00
2022-11-04T01:39:30.721Z,100.00
2022-11-04T01:42:42.848Z,100.00
2022-11-04T01:45:58.695Z,100.00
2022-11-04T01:49:30.309Z,100.00
2022-11-04T01:52:48.095Z,100.00
2022-11-04T01:56:05.100Z,100.00
2022-11-04T01:59:19.419Z,100.00
2022-11-04T02:02:31.615Z,100.00
2022-11-04T02:05:44.988Z,100.00
2022-11-04T02:08:57.477Z,100.00
2022-11-04T02:12:25.424Z,100.00
2022-11-04T02:15:46.290Z,100.00
2022-11-04T02:19:05.923Z,100.00
2022-11-04T02:22:50.361Z,100.00
2022-11-04T02:26:46.528Z,100.00
2022-11-04T02:30:15.922Z,100.00
2022-11-04T02:33:33.165Z,100.00
2022-11-04T02:36:52.908Z,100.00
2022-11-04T02:40:13.352Z,100.00
2022-11-04T02:43:31.759Z,100.00
2022-11-04T02:46:49.686Z,100.00
2022-11-04T02:50:05.910Z,100.00
2022-11-04T02:53:23.717Z,100.00
2022-11-04T02:56:39.201Z,100.00
2022-11-04T02:59:57.174Z,100.00
2022-11-04T03:03:13.933Z,100.00
2022-11-04T03:06:29.844Z,100.00
2022-11-04T03:09:46.108Z,100.00
2022-11-04T03:13:03.514Z,100.00
2022-11-04T03:16:20.924Z,100.00
2022-11-04T03:19:38.863Z,100.00
2022-11-04T03:22:53.225Z,100.00
2022-11-04T03:26:14.311Z,100.00
2022-11-04T03:29:33.856Z,100.00
2022-11-04T03:32:51.441Z,100.00
2022-11-04T03:36:04.538Z,100.00
2022-11-04T03:39:16.800Z,100.00
2022-11-04T03:42:29.790Z,100.00
2022-11-04T03:45:42.247Z,100.00
2022-11-04T03:48:58.459Z,100.00
2022-11-04T03:52:10.975Z,100.00
2022-11-04T03:55:23.603Z,100.00
2022-11-04T03:58:43.888Z,100.00
2022-11-04T04:02:00.861Z,100.00
2022-11-04T04:05:19.063Z,100.00
2022-11-04T04:08:38.420Z,100.00
2022-11-04T04:11:57.059Z,100.00
2022-11-04T04:15:15.810Z,100.00
2022-11-04T04:18:35.604Z,100.00
2022-11-04T04:21:52.754Z,100.00
2022-11-04T04:25:22.462Z,100.00
2022-11-04T04:28:34.636Z,100.00
2022-11-04T04:31:55.770Z,100.00
2022-11-04T04:35:22.505Z,100.00
2022-11-04T04:38:57.860Z,100.00
2022-11-04T04:42:25.000Z,100.00
2022-11-04T04:45:41.420Z,100.00
2022-11-04T04:48:53.491Z,100.00
2022-11-04T04:52:05.664Z,100.00
2022-11-04T04:55:19.364Z,100.00
2022-11-04T04:58:31.423Z,100.00
2022-11-04T05:01:43.458Z,100.00
2022-11-04T05:04:56.363Z,100.00
2022-11-04T05:08:14.099Z,100.00
2022-11-04T05:11:27.246Z,100.00
2022-11-04T05:14:39.834Z,100.00
2022-11-04T05:17:52.048Z,100.00
2022-11-04T05:21:06.537Z,100.00
2022-11-04T05:24:19.504Z,100.00
2022-11-04T05:27:31.699Z,100.00
2022-11-04T05:30:44.823Z,100.00
2022-11-04T05:33:58.199Z,100.00
2022-11-04T05:37:10.427Z,100.00
2022-11-04T05:40:23.061Z,100.00
2022-11-04T05:43:35.310Z,100.00
2022-11-04T05:46:47.555Z,100.00
2022-11-04T05:49:59.897Z,100.00
2022-11-04T05:53:12.420Z,100.00
2022-11-04T05:56:25.080Z,100.00
2022-11-04T05:59:37.204Z,100.00
2022-11-04T06:02:49.532Z,100.00
2022-11-04T06:06:01.999Z,100.00
2022-11-04T06:09:14.914Z,100.00
2022-11-04T06:12:27.139Z,100.00
2022-11-04T06:15:39.439Z,100.00
2022-11-04T06:18:51.823Z,100.00
2022-11-04T06:22:04.443Z,100.00
2022-11-04T06:25:17.817Z,100.00
2022-11-04T06:28:30.199Z,100.00
2022-11-04T06:31:42.391Z,100.00
2022-11-04T06:34:54.719Z,100.00
2022-11-04T06:38:07.164Z,100.00
2022-11-04T06:41:22.510Z,100.00
2022-11-04T06:44:36.089Z,100.00
2022-11-04T06:47:48.435Z,100.00
2022-11-04T06:51:01.489Z,100.00
2022-11-04T06:54:13.788Z,100.00
2022-11-04T06:57:25.989Z,100.00
2022-11-04T07:00:38.707Z,100.00
2022-11-04T07:03:52.819Z,100.00
2022-11-04T07:07:05.137Z,100.00
2022-11-04T07:10:17.952Z,100.00
2022-11-04T07:13:30.378Z,100.00
2022-11-04T07:16:43.114Z,100.00
2022-11-04T07:19:55.641Z,100.00
2022-11-04T07:23:08.524Z,100.00
2022-11-04T07:26:21.653Z,100.00
2022-11-04T07:29:34.111Z,100.00
2022-11-04T07:32:46.437Z,100.00
2022-11-04T07:35:59.288Z,100.00
2022-11-04T07:39:12.537Z,100.00
2022-11-04T07:42:25.030Z,100.00
2022-11-04T07:45:39.507Z,100.00
2022-11-04T07:48:52.314Z,100.00
2022-11-04T07:52:04.716Z,100.00
2022-11-04T07:55:18.726Z,100.00
2022-11-04T07:58:32.613Z,100.00
2022-11-04T08:01:45.291Z,98.69
2022-11-04T08:04:57.812Z,95.60
2022-11-04T08:08:10.766Z,91.79
2022-11-04T08:11:28.441Z,87.48
2022-11-04T08:14:40.822Z,86.38
2022-11-04T08:17:53.184Z,87.15
2022-11-04T08:21:07.045Z,88.70
2022-11-04T08:24:19.991Z,89.30
2022-11-04T08:27:32.367Z,90.22
2022-11-04T08:30:44.955Z,88.54
2022-11-04T08:33:58.799Z,84.49
2022-11-04T08:37:11.133Z,84.20
2022-11-04T08:40:24.729Z,85.82
2022-11-04T08:43:37.412Z,83.55
2022-11-04T08:46:51.420Z,78.12
2022-11-04T08:50:03.861Z,74.70
2022-11-04T08:53:16.221Z,72.55
2022-11-04T08:56:31.081Z,72.62
2022-11-04T08:59:44.175Z,70.95
2022-11-04T09:02:56.696Z,70.72
2022-11-04T09:06:09.485Z,68.92
2022-11-04T09:09:23.427Z,67.91
2022-11-04T09:12:35.793Z,68.16
2022-11-04T09:15:49.110Z,69.14
2022-11-04T09:19:02.088Z,70.84
2022-11-04T09:22:14.444Z,70.32
2022-11-04T09:25:27.045Z,71.21
2022-11-04T09:28:40.517Z,71.07
2022-11-04T09:31:53.136Z,70.99
2022-11-04T09:35:05.555Z,72.47
2022-11-04T09:38:17.985Z,71.86
2022-11-04T09:41:58.273Z,71.58
2022-11-04T09:45:23.171Z,70.77
2022-11-04T09:48:38.677Z,69.45
2022-11-04T09:51:54.885Z,71.26
2022-11-04T09:55:14.539Z,70.80
2022-11-04T09:58:27.285Z,70.35
2022-11-04T10:01:46.895Z,70.99
2022-11-04T10:05:09.460Z,69.39
2022-11-04T10:08:54.971Z,69.99
2022-11-04T10:12:19.735Z,69.59
2022-11-04T10:15:51.228Z,69.80
2022-11-04T10:19:28.909Z,70.77
2022-11-04T10:22:41.433Z,70.72
2022-11-04T10:25:59.198Z,70.61
2022-11-04T10:29:18.061Z,70.70
2022-11-04T10:32:34.769Z,69.92
2022-11-04T10:35:51.717Z,69.90
2022-11-04T10:39:02.567Z,69.63
2022-11-04T10:42:16.389Z,70.72
2022-11-04T10:45:34.940Z,72.21
2022-11-04T10:48:55.371Z,71.20
2022-11-04T10:52:08.627Z,71.13
2022-11-04T10:55:34.232Z,71.59
2022-11-04T10:58:51.164Z,71.68
2022-11-04T11:02:02.611Z,72.46
2022-11-04T11:05:29.308Z,74.50
2022-11-04T11:08:43.150Z,74.62
2022-11-04T11:11:58.134Z,76.53
2022-11-04T11:15:23.979Z,76.41
2022-11-04T11:18:37.227Z,76.84
2022-11-04T11:21:53.531Z,75.17
2022-11-04T11:25:36.216Z,75.99
2022-11-04T11:28:59.035Z,73.26
2022-11-04T11:32:11.720Z,73.68
2022-11-04T11:35:28.340Z,73.05
2022-11-04T11:38:42.343Z,74.00
2022-11-04T11:42:04.064Z,75.27
2022-11-04T11:45:26.024Z,73.50
2022-11-04T11:48:45.663Z,75.63
2022-11-04T11:51:57.895Z,76.55
2022-11-04T11:55:16.700Z,75.13
2022-11-04T12:01:56.229Z,75.07
2022-11-04T12:12:47.040Z,74.06
2022-11-04T12:16:23.733Z,75.36
2022-11-04T12:19:57.506Z,75.02
2022-11-04T12:23:17.727Z,75.54
2022-11-04T12:26:40.536Z,75.85
2022-11-04T12:30:08.706Z,76.11
2022-11-04T12:33:30.848Z,77.10
2022-11-04T12:37:01.788Z,77.36
2022-11-04T12:40:26.896Z,77.31
2022-11-04T12:43:45.451Z,76.42
2022-11-04T12:47:05.132Z,76.79
2022-11-04T12:50:45.365Z,77.79
2022-11-04T12:54:09.257Z,76.50
2022-11-04T12:57:30.403Z,75.72
2022-11-04T13:00:46.201Z,74.25
2022-11-04T13:04:06.093Z,75.80
2022-11-04T13:07:24.158Z,75.72
2022-11-04T13:10:44.580Z,76.66
2022-11-04T13:14:03.340Z,75.46
2022-11-04T13:17:20.746Z,76.48
2022-11-04T13:20:42.914Z,76.67
2022-11-04T13:24:01.840Z,75.42
2022-11-04T13:27:24.559Z,75.22
2022-11-04T13:30:44.454Z,75.08
2022-11-04T13:34:02.248Z,75.17
2022-11-04T13:37:24.804Z,75.91
2022-11-04T13:40:45.641Z,75.96
2022-11-04T13:44:02.637Z,76.34
2022-11-04T13:47:22.369Z,76.43
2022-11-04T13:50:43.684Z,76.57
2022-11-04T13:54:00.146Z,76.75
2022-11-04T13:57:20.895Z,77.65
2022-11-04T14:00:35.762Z,77.21
2022-11-04T14:04:02.334Z,77.97
2022-11-04T14:07:18.059Z,78.23
2022-11-04T14:10:49.385Z,79.07
2022-11-04T14:14:25.542Z,79.14
2022-11-04T14:18:13.093Z,79.38
2022-11-04T14:21:29.368Z,80.04
2022-11-04T14:24:41.929Z,80.39
2022-11-04T14:27:57.052Z,82.76
2022-11-04T14:31:17.465Z,83.87
2022-11-04T14:34:37.682Z,84.24
2022-11-04T14:37:55.492Z,83.99
2022-11-04T14:41:36.285Z,84.15
2022-11-04T14:44:52.959Z,83.79
2022-11-04T14:48:15.987Z,82.50
2022-11-04T14:51:34.492Z,82.25
2022-11-04T14:54:47.332Z,83.44
2022-11-04T14:58:04.155Z,83.00
2022-11-04T15:01:16.824Z,83.28
2022-11-04T15:04:33.942Z,83.69
2022-11-04T15:07:46.924Z,84.26
2022-11-04T15:11:06.222Z,86.05
2022-11-04T15:14:29.759Z,86.59
2022-11-04T15:17:42.608Z,86.36
2022-11-04T15:20:58.885Z,86.75
2022-11-04T15:24:14.856Z,87.17
2022-11-04T15:27:34.418Z,89.44
2022-11-04T15:30:46.891Z,90.16
2022-11-04T15:34:02.360Z,91.62
2022-11-04T15:37:18.184Z,93.75
2022-11-04T15:40:34.213Z,94.72
2022-11-04T15:43:47.007Z,93.54
2022-11-04T15:47:07.004Z,94.26
2022-11-04T15:50:29.969Z,96.39
2022-11-04T15:53:54.621Z,99.55
2022-11-04T15:57:12.665Z,100.00
2022-11-04T16:00:34.237Z,98.81
2022-11-04T16:03:46.821Z,99.98
2022-11-04T16:07:28.327Z,100.00
2022-11-04T16:10:42.397Z,100.00
2022-11-04T16:13:54.742Z,100.00
2022-11-04T16:17:07.203Z,100.00
2022-11-04T16:20:26.701Z,100.00
2022-11-04T16:23:42.566Z,100.00
2022-11-04T16:26:55.811Z,100.00
2022-11-04T16:30:21.227Z,100.00
2022-11-04T16:33:35.172Z,100.00
2022-11-04T16:36:47.701Z,100.00
2022-11-04T16:40:00.220Z,100.00
2022-11-04T16:43:14.770Z,100.00
2022-11-04T16:46:28.081Z,100.00
2022-11-04T16:49:40.594Z,100.00
2022-11-04T16:52:53.949Z,100.00
2022-11-04T16:56:07.499Z,100.00
2022-11-04T16:59:20.498Z,100.00
2022-11-04T17:02:37.795Z,100.00
2022-11-04T17:05:50.453Z,100.00
2022-11-04T17:09:03.522Z,100.00
2022-11-04T17:12:16.183Z,100.00
2022-11-04T17:15:28.708Z,100.00
2022-11-04T17:18:42.741Z,100.00
2022-11-04T17:21:55.476Z,100.00
2022-11-04T17:25:08.352Z,100.00
2022-11-04T17:28:21.061Z,100.00
2022-11-04T17:31:33.532Z,100.00
2022-11-04T17:34:46.013Z,100.00
2022-11-04T17:38:00.976Z,100.00
2022-11-04T17:41:27.705Z,100.00
2022-11-04T17:44:40.256Z,100.00
2022-11-04T17:47:52.644Z,100.00
2022-11-04T17:51:05.184Z,100.00
2022-11-04T17:54:19.107Z,100.00
2022-11-04T17:57:31.675Z,100.00
2022-11-04T18:00:44.222Z,100.00
2022-11-04T18:03:59.406Z,100.00
2022-11-04T18:07:11.729Z,100.00
2022-11-04T18:10:24.425Z,100.00
2022-11-04T18:13:37.566Z,100.00
2022-11-04T18:16:51.453Z,100.00
2022-11-04T18:20:05.460Z,100.00
2022-11-04T18:23:18.512Z,100.00
2022-11-04T18:26:31.669Z,100.00
2022-11-04T18:29:44.554Z,100.00
2022-11-04T18:32:57.303Z,100.00
2022-11-04T18:36:13.200Z,100.00
2022-11-04T18:39:26.456Z,100.00
2022-11-04T18:42:38.814Z,100.00
2022-11-04T18:45:53.429Z,100.00
2022-11-04T18:49:05.929Z,100.00
2022-11-04T18:52:18.277Z,100.00
2022-11-04T18:55:30.982Z,100.00
2022-11-04T18:58:45.155Z,100.00
2022-11-04T19:01:57.685Z,100.00
2022-11-04T19:05:11.140Z,100.00
2022-11-04T19:08:23.737Z,100.00
2022-11-04T19:11:40.047Z,100.00
2022-11-04T19:14:52.597Z,100.00
2022-11-04T19:18:05.081Z,100.00
2022-11-04T19:21:19.413Z,100.00
2022-11-04T19:24:32.568Z,100.00
2022-11-04T19:27:45.041Z,100.00
2022-11-04T19:31:06.806Z,100.00
2022-11-04T19:34:19.136Z,100.00
2022-11-04T19:37:33.086Z,100.00
2022-11-04T19:40:50.877Z,100.00
2022-11-04T19:44:00.365Z,100.00
2022-11-04T19:47:13.862Z,100.00
2022-11-04T19:50:27.004Z,100.00
2022-11-04T19:53:42.145Z,100.00
2022-11-04T19:56:54.532Z,100.00
2022-11-04T20:00:06.825Z,100.00
2022-11-04T20:03:21.555Z,100.00
2022-11-04T20:06:34.196Z,100.00
2022-11-04T20:09:46.552Z,100.00
2022-11-04T20:13:13.578Z,100.00
2022-11-04T20:16:31.828Z,100.00
2022-11-04T20:19:45.501Z,100.00
2022-11-04T20:22:58.024Z,100.00
2022-11-04T20:26:20.624Z,100.00
2022-11-04T20:29:33.652Z,100.00
2022-11-04T20:32:45.970Z,100.00
2022-11-04T20:35:58.471Z,100.00
2022-11-04T20:39:14.863Z,100.00
2022-11-04T20:42:27.375Z,100.00
2022-11-04T20:45:39.849Z,100.00
2022-11-04T20:48:52.482Z,100.00
2022-11-04T20:52:04.979Z,100.00
2022-11-04T20:55:18.761Z,100.00
2022-11-04T20:58:30.992Z,100.00
2022-11-04T21:01:47.668Z,100.00
2022-11-04T21:05:00.628Z,100.00
2022-11-04T21:08:13.387Z,100.00
2022-11-04T21:11:31.701Z,100.00
2022-11-04T21:14:42.561Z,100.00
2022-11-04T21:17:54.890Z,100.00
2022-11-04T21:21:12.198Z,100.00
2022-11-04T21:24:24.682Z,100.00
2022-11-04T21:27:36.976Z,100.00
2022-11-04T21:30:53.246Z,100.00
2022-11-04T21:34:06.277Z,100.00
2022-11-04T21:37:18.646Z,100.00
2022-11-04T21:40:30.892Z,100.00
2022-11-04T21:43:43.686Z,100.00
2022-11-04T21:46:57.679Z,100.00
2022-11-04T21:50:16.728Z,100.00
2022-11-04T21:53:25.699Z,100.00
2022-11-04T21:56:39.053Z,100.00
2022-11-04T21:59:51.558Z,100.00
2022-11-04T22:03:03.787Z,100.00
2022-11-04T22:06:18.484Z,100.00
2022-11-04T22:09:30.960Z,100.00
2022-11-04T22:12:45.841Z,100.00
2022-11-04T22:16:06.271Z,100.00
2022-11-04T22:19:19.453Z,100.00
2022-11-04T22:22:31.938Z,100.00
2022-11-04T22:25:49.764Z,100.00
2022-11-04T22:28:59.990Z,100.00
2022-11-04T22:32:12.401Z,100.00
2022-11-04T22:35:25.417Z,100.00
2022-11-04T22:38:39.342Z,100.00
2022-11-04T22:41:51.817Z,100.00
2022-11-04T22:45:05.415Z,100.00
2022-11-04T22:48:17.926Z,100.00
2022-11-04T22:51:31.561Z,100.00
2022-11-04T22:54:44.092Z,100.00
2022-11-04T22:57:56.700Z,100.00
2022-11-04T23:01:12.329Z,100.00
2022-11-04T23:04:24.787Z,100.00
2022-11-04T23:07:36.999Z,100.00
2022-11-04T23:10:59.797Z,100.00
2022-11-04T23:14:24.227Z,100.00
2022-11-04T23:17:50.591Z,100.00
2022-11-04T23:21:17.139Z,100.00
2022-11-04T23:24:43.712Z,100.00
2022-11-04T23:28:13.408Z,100.00
2022-11-04T23:31:25.664Z,100.00
2022-11-04T23:34:52.381Z,100.00
2022-11-04T23:38:06.360Z,100.00
2022-11-04T23:41:32.529Z,100.00
2022-11-04T23:44:58.949Z,100.00
2022-11-04T23:48:27.447Z,100.00
2022-11-04T23:51:54.105Z,100.00
2022-11-04T23:55:20.811Z,100.00
2022-11-04T23:58:47.359Z,100.00
